Terminal Aerodrome Forecast
Issued by NWS

Home | Current Version | Previous Version | Text Only | Print | Product List | Glossary On
Versions: 1 2 3 4 5 6 7 8 9 10 11 12 13 14 15 16 17 18 19 20 21 22 23 24 25 26 27 28 29 30
217
FTUS44 KBMX 221720
TAFANB
TAF
KANB 221720Z 2218/2318 22005KT P6SM BKN010
     FM222000 05003KT 5SM -RA BR OVC025
      TEMPO 2221/2222 2SM TSRA BR BKN015CB
     FM222200 32010G18KT 4SM -SHRA VCTS OVC025CB
     FM230000 29014G20KT 5SM -RA OVC007
     FM230800 32015G25KT P6SM OVC015=

USA.gov is the U.S. government's official web portal to all federal, state and local government web resources and services.